APG211 RPMR-RPVD
Flight info
| Callsign | APG211 |
|---|---|
| Flight time | N/A |
| Altitude | 28000 |
| Route | LATIA4P LATIA W6 LUMVI W7 EMDEE DCT GRACI |
| Aircraft | A320/M-SDE3FGHIRWY/LB1 |
Departure
| Time | 2026-04-30 22:46 |
|---|---|
| Airport | General Santos International Airport (RPMR) |
Arrival
| Time | N/A |
|---|---|
| Airport | Sibulan Airport (RPVD) |
| Time | Latitude | Longitude | Altitude | Speed | Heading |
|---|---|---|---|---|---|
| 2026-04-30 22:28 | 6.05726 | 125.09974 | 491 ft | 0 kts | 82° |
| 2026-04-30 22:36 | 6.05724 | 125.09961 | 482 ft | 2 kts | 82° |
| 2026-04-30 22:37 | 6.05717 | 125.09908 | 489 ft | 3 kts | 91° |
| 2026-04-30 22:37 | 6.05722 | 125.09890 | 490 ft | 3 kts | 128° |
| 2026-04-30 22:37 | 6.05734 | 125.09880 | 483 ft | 0 kts | 175° |
| 2026-04-30 22:40 | 6.05518 | 125.09904 | 483 ft | 18 kts | 169° |
| 2026-04-30 22:41 | 6.05401 | 125.09758 | 487 ft | 16 kts | 264° |
| 2026-04-30 22:41 | 6.05215 | 125.09694 | 474 ft | 19 kts | 173° |
| 2026-04-30 22:42 | 6.04512 | 125.09797 | 475 ft | 18 kts | 126° |
| 2026-04-30 22:43 | 6.04412 | 125.09948 | 469 ft | 14 kts | 210° |
| 2026-04-30 22:43 | 6.04425 | 125.09790 | 474 ft | 14 kts | 341° |
| 2026-04-30 22:44 | 6.04457 | 125.09784 | 475 ft | 0 kts | 354° |
| 2026-04-30 22:45 | 6.05355 | 125.09675 | 485 ft | 127 kts | 353° |
| 2026-04-30 22:45 | 6.07585 | 125.09443 | 1059 ft | 174 kts | 358° |
| 2026-04-30 22:46 | 6.10049 | 125.09473 | 2189 ft | 188 kts | 12° |
| 2026-04-30 22:47 | 6.14666 | 125.13156 | 3937 ft | 246 kts | 52° |
| 2026-04-30 22:47 | 6.16895 | 125.15992 | 5187 ft | 265 kts | 52° |
| 2026-04-30 22:48 | 6.19215 | 125.18928 | 6714 ft | 271 kts | 52° |
| 2026-04-30 22:49 | 6.22954 | 125.23298 | 8811 ft | 282 kts | 37° |
| 2026-04-30 22:49 | 6.28701 | 125.25224 | 10444 ft | 309 kts | 14° |
| 2026-04-30 22:50 | 6.37832 | 125.27327 | 12132 ft | 349 kts | 14° |
| 2026-04-30 22:51 | 6.42669 | 125.28026 | 13316 ft | 357 kts | 357° |
| 2026-04-30 22:51 | 6.47421 | 125.26491 | 14373 ft | 368 kts | 328° |
| 2026-04-30 22:52 | 6.49471 | 125.24936 | 14855 ft | 373 kts | 323° |
| 2026-04-30 22:52 | 6.53570 | 125.21656 | 15834 ft | 379 kts | 323° |
| 2026-04-30 22:53 | 6.57734 | 125.18323 | 16801 ft | 386 kts | 323° |
| 2026-04-30 22:53 | 6.61978 | 125.14942 | 17751 ft | 392 kts | 323° |
| 2026-04-30 22:53 | 6.64121 | 125.13231 | 18208 ft | 395 kts | 323° |
| 2026-04-30 22:54 | 6.68464 | 125.09762 | 19017 ft | 401 kts | 323° |
| 2026-04-30 22:55 | 6.75081 | 125.04455 | 20247 ft | 409 kts | 323° |
| 2026-04-30 22:55 | 6.79557 | 125.00865 | 21052 ft | 415 kts | 323° |
| 2026-04-30 22:56 | 6.84098 | 124.97226 | 21842 ft | 420 kts | 323° |
| 2026-04-30 22:56 | 6.91031 | 124.91667 | 22999 ft | 429 kts | 323° |
| 2026-04-30 22:57 | 6.95751 | 124.87939 | 23679 ft | 434 kts | 323° |
| 2026-04-30 22:57 | 7.00513 | 124.84177 | 24301 ft | 437 kts | 323° |
| 2026-04-30 22:58 | 7.05311 | 124.80368 | 24919 ft | 440 kts | 323° |
| 2026-04-30 22:59 | 7.12583 | 124.74565 | 25822 ft | 445 kts | 323° |
| 2026-04-30 22:59 | 7.19877 | 124.68707 | 26660 ft | 450 kts | 323° |